Latest Weather Observations for Arlington Reef

IDQ60801

Issued at 8:32 am EST Monday 2 February 2015 (issued every 30 minutes, with the page automatically refreshed every 10 minutes)

About weather observations | Map of weather stations | Latest weather observations for QLD | Other Formats
Station Details ID: 200879 Name: ARLINGTON REEF Lat: -16.72 Lon: 146.11 Height: 0.0 m
Data from the previous 72 hours. | See also: Recent months at Arlington Reef
Date/Time
EST
Temp
°C
App
Temp
°C
Dew
Point
Rel
Hum
%
Delta-T
°C
Wind Press
QNH
hPa
Press
MSL
hPa
Rain
since 9 am
mm
Dir
 
Spd
km/h
Gust
km/h
Spd
kts
Gust
kts
02/08:30am - - - - - WNW 19 20 10 11 1008.2 1008.2 -
02/08:00am - - - - - WNW 22 26 12 14 1008.1 1008.1 -
02/07:30am - - - - - WNW 28 32 15 17 1008.2 1008.2 -
02/07:00am - - - - - W 28 32 15 17 1008.0 1008.0 -
02/06:30am - - - - - WNW 28 35 15 19 1008.0 1008.0 -
02/06:00am - - - - - N 28 57 15 31 1006.4 1006.4 -
02/05:30am - - - - - WNW 35 44 19 24 1007.3 1007.3 -
02/05:00am - - - - - W 28 32 15 17 1006.9 1006.9 -
02/04:30am - - - - - W 35 41 19 22 1006.6 1006.6 -
02/04:00am - - - - - W 39 46 21 25 1006.5 1006.5 -
02/03:30am - - - - - W 35 43 19 23 1006.4 1006.4 -
02/03:00am - - - - - W 28 33 15 18 1006.3 1006.3 -
02/02:30am - - - - - NW 28 32 15 17 1006.2 1006.2 -
02/02:00am - - - - - NW 24 26 13 14 1006.7 1006.7 -
02/01:30am - - - - - NW 24 26 13 14 1007.1 1007.1 -
02/01:00am - - - - - NW 20 24 11 13 1007.4 1007.4 -
02/12:30am - - - - - NW 20 22 11 12 1007.7 1007.7 -
02/12:00am - - - - - NNW 17 19 9 10 1007.8 1007.8 -
 
Date/Time
EST
Temp
°C
App
Temp
°C
Dew
Point
Rel
Hum
%
Delta-T
°C
Wind Press
QNH
hPa
Press
MSL
hPa
Rain
since 9 am
mm
Dir
 
Spd
km/h
Gust
km/h
Spd
kts
Gust
kts
01/11:30pm - - - - - NW 13 17 7 9 1008.2 1008.2 -
01/11:00pm - - - - - NNW 13 17 7 9 1008.2 1008.2 -
01/10:30pm - - - - - N 15 17 8 9 1007.8 1007.8 -
01/10:00pm - - - - - N 15 17 8 9 1007.6 1007.6 -
01/09:30pm - - - - - NNE 15 17 8 9 1007.2 1007.2 -
01/09:00pm - - - - - NNE 15 17 8 9 1006.7 1006.7 -
01/08:30pm - - - - - NNE 15 17 8 9 1006.4 1006.4 -
01/08:00pm - - - - - NNE 13 15 7 8 1006.3 1006.3 -
01/07:30pm - - - - - NNE 13 17 7 9 1006.0 1006.0 -
01/07:00pm - - - - - NE 19 20 10 11 1005.4 1005.4 -
01/06:30pm - - - - - NE 17 20 9 11 1005.2 1005.2 -
01/06:00pm - - - - - NE 20 24 11 13 1004.9 1004.9 -
01/05:30pm - - - - - NE 20 24 11 13 1004.7 1004.7 -
01/05:00pm - - - - - NE 22 24 12 13 1004.7 1004.7 -
01/04:30pm - - - - - NE 24 26 13 14 1004.4 1004.4 -
01/04:00pm - - - - - NNE 22 24 12 13 1004.6 1004.6 -
01/03:30pm - - - - - NNE 20 22 11 12 1004.8 1004.8 -
01/03:00pm - - - - - N 15 19 8 10 1005.1 1005.1 -
01/02:30pm - - - - - N 13 15 7 8 1005.4 1005.4 -
01/02:00pm - - - - - N 13 15 7 8 1005.6 1005.6 -
01/01:30pm - - - - - NNW 13 15 7 8 1005.9 1005.9 -
01/01:00pm - - - - - NNW 9 13 5 7 1006.2 1006.2 -
01/12:30pm - - - - - NW 13 15 7 8 1006.6 1006.6 -
01/12:00pm - - - - - NW 17 20 9 11 1006.8 1006.8 -
01/11:30am - - - - - NW 19 20 10 11 1007.1 1007.1 -
01/11:00am - - - - - NW 19 22 10 12 1007.6 1007.6 -
01/10:30am - - - - - NW 17 20 9 11 1008.1 1008.1 -
01/10:00am - - - - - WNW 13 19 7 10 1008.3 1008.3 -
01/09:30am - - - - - WNW 13 15 7 8 1008.4 1008.4 -
01/09:00am - - - - - WNW 11 15 6 8 1008.1 1008.1 -
01/08:30am - - - - - WNW 15 17 8 9 1008.0 1008.0 -
01/08:00am - - - - - WNW 13 17 7 9 1007.8 1007.8 -
01/07:30am - - - - - WNW 13 17 7 9 1007.4 1007.4 -
01/07:00am - - - - - WNW 13 15 7 8 1007.3 1007.3 -
01/06:30am - - - - - NW 11 15 6 8 1007.2 1007.2 -
01/06:00am - - - - - NW 9 13 5 7 1006.8 1006.8 -
01/05:30am - - - - - WNW 9 11 5 6 1006.5 1006.5 -
01/05:00am - - - - - W 7 11 4 6 1006.3 1006.3 -
01/04:30am - - - - - NNW 7 11 4 6 1006.3 1006.3 -
01/04:00am - - - - - N 7 9 4 5 1006.1 1006.1 -
01/03:30am - - - - - N 7 9 4 5 1006.2 1006.2 -
01/03:00am - - - - - N 9 13 5 7 1006.2 1006.2 -
01/02:30am - - - - - N 11 13 6 7 1006.3 1006.3 -
01/02:00am - - - - - NE 7 11 4 6 1006.5 1006.5 -
01/01:30am - - - - - NE 7 11 4 6 1006.6 1006.6 -
01/01:00am - - - - - NE 6 9 3 5 1007.0 1007.0 -
01/12:30am - - - - - ENE 9 11 5 6 1007.5 1007.5 -
01/12:00am - - - - - ENE 9 11 5 6 1008.0 1008.0 -
 
Date/Time
EST
Temp
°C
App
Temp
°C
Dew
Point
Rel
Hum
%
Delta-T
°C
Wind Press
QNH
hPa
Press
MSL
hPa
Rain
since 9 am
mm
Dir
 
Spd
km/h
Gust
km/h
Spd
kts
Gust
kts
31/11:30pm - - - - - E 11 13 6 7 1008.2 1008.2 -
31/11:00pm - - - - - ENE 11 15 6 8 1008.3 1008.3 -
31/10:30pm - - - - - ENE 9 13 5 7 1008.4 1008.4 -
31/10:00pm - - - - - ENE 9 11 5 6 1008.3 1008.3 -
31/09:30pm - - - - - ENE 9 13 5 7 1008.2 1008.2 -
31/09:00pm - - - - - ENE 11 13 6 7 1008.3 1008.3 -
31/08:30pm - - - - - E 13 15 7 8 1007.8 1007.8 -
31/08:00pm - - - - - ESE 17 20 9 11 1007.1 1007.1 -
31/07:30pm - - - - - ESE 17 20 9 11 1006.7 1006.7 -
31/07:00pm - - - - - ESE 13 17 7 9 1006.6 1006.6 -
31/06:30pm - - - - - ESE 15 17 8 9 1006.3 1006.3 -
31/06:00pm - - - - - SE 11 15 6 8 1006.0 1006.0 -
31/05:30pm - - - - - SE 11 15 6 8 1005.9 1005.9 -
31/05:00pm - - - - - ESE 15 19 8 10 1005.4 1005.4 -
31/04:30pm - - - - - SE 17 20 9 11 1005.2 1005.2 -
31/04:00pm - - - - - SE 17 19 9 10 1004.8 1004.8 -
31/03:30pm - - - - - SE 19 22 10 12 1005.0 1005.0 -
31/03:00pm - - - - - SE 20 24 11 13 1005.2 1005.2 -
31/02:30pm - - - - - SE 19 24 10 13 1005.3 1005.3 -
31/02:00pm - - - - - SE 19 22 10 12 1005.8 1005.8 -
31/01:30pm - - - - - SE 17 20 9 11 1005.9 1005.9 -
31/01:00pm - - - - - SE 15 19 8 10 1006.2 1006.2 -
31/12:30pm - - - - - SE 17 20 9 11 1006.3 1006.3 -
31/12:00pm - - - - - SE 17 20 9 11 1006.7 1006.7 -
31/11:30am - - - - - SE 9 13 5 7 1007.2 1007.2 -
31/11:00am - - - - - SE 7 9 4 5 1007.4 1007.4 -
31/10:30am - - - - - SSE 6 7 3 4 1007.6 1007.6 -
31/10:00am - - - - - CALM 0 4 0 2 1007.8 1007.8 -
31/09:30am - - - - - ESE 4 6 2 3 1007.8 1007.8 -
31/09:00am - - - - - S 4 6 2 3 1007.8 1007.8 -
31/08:30am - - - - - CALM 0 2 0 1 1008.0 1008.0 -
31/08:00am - - - - - CALM 0 0 0 0 1008.1 1008.1 -
31/07:30am - - - - - NW 4 6 2 3 1007.7 1007.7 -
31/07:00am - - - - - WNW 6 7 3 4 1007.2 1007.2 -
31/06:30am - - - - - W 6 9 3 5 1007.1 1007.1 -
31/06:00am - - - - - SSW 7 11 4 6 1006.8 1006.8 -
31/05:30am - - - - - SSW 7 9 4 5 1006.6 1006.6 -
31/05:00am - - - - - SSE 15 19 8 10 1006.3 1006.3 -
31/04:30am - - - - - S 19 20 10 11 1006.1 1006.1 -
31/04:00am - - - - - S 22 28 12 15 1006.0 1006.0 -
31/03:30am - - - - - S 22 26 12 14 1006.2 1006.2 -
31/03:00am - - - - - S 26 30 14 16 1006.2 1006.2 -
31/02:30am - - - - - S 26 33 14 18 1006.2 1006.2 -
31/02:00am - - - - - S 30 33 16 18 1006.3 1006.3 -
31/01:30am - - - - - SSE 30 35 16 19 1006.6 1006.6 -
31/01:00am - - - - - SSE 39 46 21 25 1006.8 1006.8 -
31/12:30am - - - - - SSE 44 52 24 28 1006.6 1006.6 -
31/12:08am - - - - - ESE 30 57 16 31 1006.6 1006.6 -
31/12:00am - - - - - ESE 20 26 11 14 1007.0 1007.0 -
 
Date/Time
EST
Temp
°C
App
Temp
°C
Dew
Point
Rel
Hum
%
Delta-T
°C
Wind Press
QNH
hPa
Press
MSL
hPa
Rain
since 9 am
mm
Dir
 
Spd
km/h
Gust
km/h
Spd
kts
Gust
kts
30/11:30pm - - - - - E 15 17 8 9 1007.1 1007.1 -
30/11:00pm - - - - - ESE 13 15 7 8 1007.2 1007.2 -
30/10:30pm - - - - - ESE 9 13 5 7 1007.2 1007.2 -
30/10:00pm - - - - - ESE 9 13 5 7 1006.9 1006.9 -
30/09:30pm - - - - - ESE 9 13 5 7 1006.4 1006.4 -
30/09:00pm - - - - - SE 13 17 7 9 1006.2 1006.2 -
30/08:30pm - - - - - SE 15 17 8 9 1006.1 1006.1 -
30/08:00pm - - - - - SE 15 17 8 9 1005.9 1005.9 -
30/07:30pm - - - - - ESE 15 19 8 10 1005.2 1005.2 -
30/07:00pm - - - - - ESE 15 17 8 9 1004.8 1004.8 -
30/06:30pm - - - - - E 13 17 7 9 1004.5 1004.5 -
30/06:00pm - - - - - ESE 17 20 9 11 1004.1 1004.1 -
30/05:30pm - - - - - SE 17 19 9 10 1004.1 1004.1 -
30/05:00pm - - - - - SE 20 24 11 13 1003.8 1003.8 -
30/04:30pm - - - - - ESE 20 24 11 13 1003.6 1003.6 -
30/04:00pm - - - - - ESE 22 26 12 14 1003.3 1003.3 -
30/03:30pm - - - - - ESE 20 24 11 13 1003.4 1003.4 -
30/03:00pm - - - - - ESE 20 24 11 13 1003.7 1003.7 -
30/02:30pm - - - - - ESE 19 22 10 12 1003.9 1003.9 -
30/02:00pm - - - - - ESE 17 20 9 11 1004.3 1004.3 -
30/01:30pm - - - - - SE 17 20 9 11 1004.5 1004.5 -
30/01:00pm - - - - - SE 17 19 9 10 1004.9 1004.9 -
30/12:30pm - - - - - SE 17 20 9 11 1005.2 1005.2 -
30/12:00pm - - - - - SE 17 20 9 11 1005.5 1005.5 -
30/11:30am - - - - - SSE 19 24 10 13 1005.9 1005.9 -
30/11:00am - - - - - SSE 17 20 9 11 1006.0 1006.0 -
30/10:30am - - - - - S 17 19 9 10 1006.0 1006.0 -
30/10:00am - - - - - S 17 19 9 10 1006.1 1006.1 -
30/09:30am - - - - - S 20 22 11 12 1006.0 1006.0 -
30/09:00am - - - - - S 19 24 10 13 1005.9 1005.9 -

Other Formats:

Comma delimited format used in spreadsheet applications
http://www.bom.gov.au/fwo/IDQ60801/IDQ60801.94284.axf

JavaScript Object Notation format (JSON) in row-major order
http://www.bom.gov.au/fwo/IDQ60801/IDQ60801.94284.json